Time;durP1;ratioP1;P1;durP2;ratioP2;P2;SDS_P1;SDS_P2;PMS_P1;PMS_P2;Temp;Humidity;BMP_temperature;BMP_pressure;BME280_temperature;BME280_humidity;BME280_pressure;Samples;Min_cycle;Max_cycle;Signal;HPM_P1;HPM_P2
2023/08/16 00:02:18;;;;;;;0.88;0.80;;;14.00;99.90;;;;;;4970958;28;20047;-74
2023/08/16 00:04:45;;;;;;;0.80;0.70;;;14.00;99.90;;;;;;4952315;29;20043;-74
2023/08/16 00:07:11;;;;;;;1.00;0.80;;;14.00;99.90;;;;;;4952546;28;20436;-74
2023/08/16 00:09:39;;;;;;;1.02;0.93;;;13.90;99.90;;;;;;4955176;28;20137;-74
2023/08/16 00:12:05;;;;;;;1.25;0.90;;;13.90;99.90;;;;;;4962072;28;20443;-74
2023/08/16 00:14:31;;;;;;;1.55;0.90;;;13.90;99.90;;;;;;4968698;28;20443;-74
2023/08/16 00:16:57;;;;;;;1.02;0.90;;;13.90;99.90;;;;;;4970561;28;20229;-74
2023/08/16 00:19:23;;;;;;;0.90;0.73;;;13.80;99.90;;;;;;4960754;28;20566;-74
2023/08/16 00:21:49;;;;;;;;;;;13.80;99.90;;;;;;4958361;28;20077;-74
2023/08/16 00:24:14;;;;;;;1.38;0.88;;;13.70;99.90;;;;;;4991812;28;19993;-74
2023/08/16 00:26:40;;;;;;;0.93;0.82;;;13.60;99.90;;;;;;5003547;28;20047;-74
2023/08/16 00:29:06;;;;;;;1.10;0.80;;;13.60;99.90;;;;;;4972107;28;20047;-74
2023/08/16 00:31:31;;;;;;;1.17;0.88;;;13.50;99.90;;;;;;4972322;28;20056;-74
2023/08/16 00:33:57;;;;;;;1.92;1.50;;;13.50;99.90;;;;;;4962437;28;20070;-74
2023/08/16 00:36:23;;;;;;;0.90;0.80;;;13.50;99.90;;;;;;4958427;28;20142;-74
2023/08/16 00:38:48;;;;;;;0.90;0.80;;;13.50;99.90;;;;;;4957325;28;20047;-74
2023/08/16 00:41:14;;;;;;;1.13;0.88;;;13.50;99.90;;;;;;4971488;28;20054;-74
2023/08/16 00:43:40;;;;;;;1.15;0.90;;;13.50;99.90;;;;;;4970039;28;20113;-74
2023/08/16 00:46:09;;;;;;;0.90;0.90;;;13.50;99.90;;;;;;4971990;28;20129;-74
2023/08/16 00:48:38;;;;;;;1.38;0.93;;;13.40;99.90;;;;;;4970133;28;20061;-74
2023/08/16 00:51:06;;;;;;;1.30;1.20;;;13.40;99.90;;;;;;4970701;28;20125;-74
2023/08/16 00:53:33;;;;;;;1.10;0.90;;;13.30;99.90;;;;;;4964797;28;20043;-74
2023/08/16 00:55:59;;;;;;;1.65;0.90;;;13.20;99.90;;;;;;4970649;28;20043;-74
2023/08/16 00:58:26;;;;;;;1.02;0.88;;;13.20;99.90;;;;;;4954124;28;20050;-74
2023/08/16 01:00:52;;;;;;;0.98;0.80;;;13.20;99.90;;;;;;4968703;28;20046;-74
2023/08/16 01:03:17;;;;;;;0.98;0.90;;;13.10;99.90;;;;;;4968231;28;20450;-74
2023/08/16 01:05:43;;;;;;;1.35;0.98;;;13.10;99.90;;;;;;4949053;28;20057;-74
2023/08/16 01:08:09;;;;;;;1.23;1.00;;;13.10;99.90;;;;;;4985785;28;20066;-74
2023/08/16 01:10:53;;;;;;;0.70;0.70;;;13.10;99.90;;;;;;4970906;28;20050;-74
2023/08/16 01:13:50;;;;;;;0.82;0.80;;;13.00;99.90;;;;;;4971708;28;20398;-74
2023/08/16 01:16:19;;;;;;;1.15;0.80;;;13.00;99.90;;;;;;4994239;28;20055;-74
2023/08/16 01:18:45;;;;;;;0.75;0.60;;;13.00;99.90;;;;;;4971420;28;20059;-74
2023/08/16 01:21:15;;;;;;;1.10;0.80;;;13.00;99.90;;;;;;4974165;28;20061;-74
2023/08/16 01:24:17;;;;;;;1.38;0.88;;;13.00;99.90;;;;;;4969267;28;20403;-74
2023/08/16 01:26:44;;;;;;;1.40;0.80;;;12.90;99.90;;;;;;4971259;28;20101;-74
2023/08/16 01:29:10;;;;;;;1.00;0.90;;;12.90;99.90;;;;;;4971074;28;20386;-74
2023/08/16 01:31:37;;;;;;;1.00;0.90;;;12.90;99.90;;;;;;4971156;28;20485;-74
2023/08/16 01:34:03;;;;;;;1.52;0.98;;;12.90;99.90;;;;;;4987364;28;20082;-74
2023/08/16 01:36:28;;;;;;;0.90;0.80;;;12.80;99.90;;;;;;4970547;28;20074;-74
2023/08/16 01:38:55;;;;;;;0.73;0.70;;;12.80;99.90;;;;;;4955015;28;20054;-74
2023/08/16 01:41:28;;;;;;;1.05;0.90;;;12.80;99.90;;;;;;4970880;28;20053;-74
2023/08/16 01:43:55;;;;;;;0.80;0.80;;;12.70;99.90;;;;;;4954934;28;20057;-74
2023/08/16 01:46:22;;;;;;;0.63;0.60;;;12.70;99.90;;;;;;4971126;28;20050;-74
2023/08/16 01:48:49;;;;;;;0.80;0.80;;;12.80;99.90;;;;;;4954726;28;20536;-74
2023/08/16 01:51:15;;;;;;;0.82;0.57;;;12.80;99.90;;;;;;4970761;28;20082;-74
2023/08/16 01:53:40;;;;;;;0.90;0.80;;;12.80;99.90;;;;;;4970771;28;20073;-74
2023/08/16 01:56:06;;;;;;;1.25;0.85;;;12.80;99.90;;;;;;4970632;28;20097;-74
2023/08/16 01:58:32;;;;;;;0.90;0.80;;;12.80;99.90;;;;;;4970708;28;20046;-74
2023/08/16 02:00:57;;;;;;;1.15;1.05;;;12.80;99.90;;;;;;4953684;28;20442;-74
2023/08/16 02:03:23;;;;;;;1.00;0.80;;;12.80;99.90;;;;;;4969862;28;20054;-80
2023/08/16 02:05:49;;;;;;;0.80;0.70;;;12.80;99.90;;;;;;4952836;28;20041;-79
2023/08/16 02:08:14;;;;;;;1.00;0.90;;;12.70;99.90;;;;;;4952167;28;20055;-80
2023/08/16 02:10:40;;;;;;;1.05;0.95;;;12.70;99.90;;;;;;4962388;28;20487;-79
2023/08/16 02:13:06;;;;;;;0.80;0.80;;;12.70;99.90;;;;;;4982479;28;20548;-79
2023/08/16 02:15:32;;;;;;;0.80;0.80;;;12.70;99.90;;;;;;4955895;28;20039;-80
2023/08/16 02:17:57;;;;;;;1.30;0.95;;;12.70;99.90;;;;;;4966037;28;20085;-79
2023/08/16 02:20:23;;;;;;;1.23;1.00;;;12.70;99.90;;;;;;4977244;28;20483;-79
2023/08/16 02:22:49;;;;;;;1.83;0.98;;;12.70;99.90;;;;;;4961548;28;20049;-80
2023/08/16 02:25:14;;;;;;;1.38;1.08;;;12.70;99.90;;;;;;4949029;28;20524;-79
2023/08/16 02:27:40;;;;;;;0.80;0.80;;;12.60;99.90;;;;;;4955126;28;20544;-79
2023/08/16 02:30:07;;;;;;;1.27;1.00;;;12.60;99.90;;;;;;4970527;28;20054;-80
2023/08/16 02:32:33;;;;;;;1.20;1.00;;;12.50;99.90;;;;;;4949411;28;20142;-80
2023/08/16 02:34:59;;;;;;;1.60;0.85;;;12.50;99.90;;;;;;4976669;28;20038;-79
2023/08/16 02:37:25;;;;;;;0.88;0.80;;;12.60;99.90;;;;;;4973731;28;20088;-80
2023/08/16 02:39:51;;;;;;;1.10;0.90;;;12.50;99.90;;;;;;4987789;28;20039;-79
2023/08/16 02:42:17;;;;;;;1.85;1.00;;;12.60;99.90;;;;;;5002853;28;20392;-80
2023/08/16 02:44:43;;;;;;;0.90;0.80;;;12.50;99.90;;;;;;4924103;28;20156;-80
2023/08/16 02:47:09;;;;;;;0.70;0.70;;;12.60;99.90;;;;;;4976069;28;20360;-79
2023/08/16 02:49:35;;;;;;;1.38;1.08;;;12.50;99.90;;;;;;4973860;28;20066;-80
2023/08/16 02:52:00;;;;;;;0.80;0.80;;;12.50;99.90;;;;;;4959307;28;20413;-79
2023/08/16 02:54:26;;;;;;;0.88;0.80;;;12.50;99.90;;;;;;4974373;28;20046;-80
2023/08/16 02:56:52;;;;;;;1.50;1.00;;;12.50;99.90;;;;;;4955985;29;20046;-80
2023/08/16 02:59:17;;;;;;;1.02;0.82;;;12.50;99.90;;;;;;4965552;28;20489;-79
2023/08/16 03:01:43;;;;;;;1.55;1.05;;;12.50;99.90;;;;;;4991386;28;20049;-79
2023/08/16 03:04:10;;;;;;;1.85;0.93;;;12.50;99.90;;;;;;4958789;28;20039;-80
2023/08/16 03:06:35;;;;;;;1.27;0.90;;;12.50;99.90;;;;;;4970834;28;20652;-79
2023/08/16 03:09:01;;;;;;;1.02;0.90;;;12.50;99.90;;;;;;4958080;28;20133;-79
2023/08/16 03:11:27;;;;;;;1.05;0.90;;;12.50;99.90;;;;;;4958707;28;20070;-79
2023/08/16 03:13:52;;;;;;;0.90;0.80;;;12.50;99.90;;;;;;4960014;28;20042;-79
2023/08/16 03:16:18;;;;;;;1.25;1.00;;;12.50;99.90;;;;;;4957030;28;20486;-79
2023/08/16 03:18:44;;;;;;;1.17;0.90;;;12.50;99.90;;;;;;4941506;28;20043;-79
2023/08/16 03:21:09;;;;;;;1.00;0.90;;;12.50;99.90;;;;;;4957809;28;20046;-79
2023/08/16 03:23:35;;;;;;;1.10;0.90;;;12.50;99.90;;;;;;4957817;28;20098;-79
2023/08/16 03:26:01;;;;;;;1.10;1.00;;;12.50;99.90;;;;;;4942376;28;20430;-79
2023/08/16 03:28:27;;;;;;;1.23;0.90;;;12.50;99.90;;;;;;4958315;28;20055;-79
2023/08/16 03:30:52;;;;;;;1.00;0.90;;;12.50;99.90;;;;;;4958185;28;20101;-79
2023/08/16 03:33:18;;;;;;;0.85;0.80;;;12.50;99.90;;;;;;4971274;28;20038;-79
2023/08/16 03:35:44;;;;;;;1.25;1.15;;;12.40;99.90;;;;;;4971967;28;20402;-79
2023/08/16 03:38:09;;;;;;;0.70;0.70;;;12.50;99.90;;;;;;4973897;28;20038;-80
2023/08/16 03:40:35;;;;;;;1.25;0.90;;;12.50;99.90;;;;;;4958393;28;20039;-79
2023/08/16 03:43:01;;;;;;;0.90;0.75;;;12.50;99.90;;;;;;4961462;28;20042;-79
2023/08/16 03:45:26;;;;;;;1.48;1.25;;;12.50;99.90;;;;;;4958351;28;20478;-79
2023/08/16 03:47:55;;;;;;;1.05;0.95;;;12.60;99.90;;;;;;4957683;28;20384;-79
2023/08/16 03:50:21;;;;;;;0.88;0.85;;;12.50;99.90;;;;;;4958159;28;20047;-80
2023/08/16 03:52:47;;;;;;;1.08;0.98;;;12.50;99.90;;;;;;4938538;29;20040;-79
2023/08/16 03:55:12;;;;;;;1.27;1.08;;;12.50;99.90;;;;;;4988750;28;20483;-80
2023/08/16 03:57:38;;;;;;;1.05;0.85;;;12.50;99.90;;;;;;4957743;28;20103;-79
2023/08/16 04:00:11;;;;;;;1.20;0.93;;;12.50;99.90;;;;;;4956378;28;20105;-79
2023/08/16 04:02:39;;;;;;;0.88;0.85;;;12.40;99.90;;;;;;4972474;28;20481;-79
2023/08/16 04:05:10;;;;;;;1.20;0.95;;;12.40;99.90;;;;;;4964642;28;20049;-78
2023/08/16 04:07:36;;;;;;;1.35;0.90;;;12.40;99.90;;;;;;4962156;28;20506;-78
2023/08/16 04:10:02;;;;;;;1.40;1.10;;;12.30;99.90;;;;;;4952938;28;20049;-78
2023/08/16 04:12:28;;;;;;;;;;;12.30;99.90;;;;;;4971269;28;20125;-78
2023/08/16 04:14:53;;;;;;;1.45;0.90;;;12.30;99.90;;;;;;4967601;28;20370;-78
2023/08/16 04:17:19;;;;;;;1.08;0.98;;;12.30;99.90;;;;;;4971051;28;20066;-79
2023/08/16 04:19:45;;;;;;;0.90;0.80;;;12.30;99.90;;;;;;4957263;28;20043;-79
2023/08/16 04:22:10;;;;;;;0.85;0.85;;;12.30;99.90;;;;;;4954100;28;20038;-79
2023/08/16 04:24:36;;;;;;;2.42;1.00;;;12.30;99.90;;;;;;4970829;28;20137;-79
2023/08/16 04:27:02;;;;;;;1.15;1.05;;;12.30;99.90;;;;;;4968531;28;20060;-79
2023/08/16 04:29:27;;;;;;;1.08;0.90;;;12.30;99.90;;;;;;4967756;28;20047;-78
2023/08/16 04:31:55;;;;;;;1.02;0.93;;;12.30;99.90;;;;;;4957354;28;20043;-78
2023/08/16 04:34:20;;;;;;;1.27;0.80;;;12.30;99.90;;;;;;4937782;28;20045;-78
2023/08/16 04:36:46;;;;;;;1.30;0.90;;;12.30;99.90;;;;;;4947102;28;20130;-78
2023/08/16 04:39:12;;;;;;;1.42;1.10;;;12.30;99.90;;;;;;4948859;28;20039;-78
2023/08/16 04:41:38;;;;;;;1.05;0.95;;;12.30;99.90;;;;;;4966569;28;20050;-78
2023/08/16 04:44:05;;;;;;;1.20;1.10;;;12.40;99.90;;;;;;4938718;28;20466;-78
2023/08/16 04:46:31;;;;;;;1.30;1.10;;;12.40;99.90;;;;;;4954082;28;20137;-79
2023/08/16 04:48:56;;;;;;;1.02;0.93;;;12.40;99.90;;;;;;4951231;28;20062;-78
2023/08/16 04:51:22;;;;;;;1.10;0.95;;;12.40;99.90;;;;;;4936121;28;20046;-78
2023/08/16 04:53:48;;;;;;;1.40;1.00;;;12.40;99.90;;;;;;4969431;28;20047;-78
2023/08/16 04:56:13;;;;;;;1.33;0.93;;;12.40;99.90;;;;;;4947345;28;20406;-78
2023/08/16 04:58:39;;;;;;;0.82;0.80;;;12.40;99.90;;;;;;4968299;28;20039;-78
2023/08/16 05:01:05;;;;;;;1.52;1.00;;;12.50;99.90;;;;;;4969308;28;20054;-78
2023/08/16 05:03:31;;;;;;;1.65;1.00;;;12.50;99.90;;;;;;4949449;28;20039;-78
2023/08/16 05:06:04;;;;;;;0.80;0.80;;;12.50;99.90;;;;;;4968282;28;20047;-78
2023/08/16 05:08:31;;;;;;;0.63;0.60;;;12.50;99.90;;;;;;4968380;28;20039;-78
2023/08/16 05:10:57;;;;;;;0.75;0.60;;;12.60;99.90;;;;;;4967187;28;20114;-78
2023/08/16 05:13:23;;;;;;;1.17;0.80;;;12.60;99.90;;;;;;4969253;28;20037;-78
2023/08/16 05:15:49;;;;;;;;;;;12.70;99.90;;;;;;4970100;28;20568;-78
2023/08/16 05:18:15;;;;;;;1.67;0.80;;;12.70;99.90;;;;;;4999547;28;19922;-78
2023/08/16 05:20:41;;;;;;;0.90;0.80;;;12.70;99.90;;;;;;4966213;28;20039;-78
2023/08/16 05:23:07;;;;;;;0.82;0.80;;;12.80;99.90;;;;;;4968931;28;20039;-78
2023/08/16 05:25:32;;;;;;;0.90;0.70;;;12.90;99.90;;;;;;4967160;28;20059;-78
2023/08/16 05:27:58;;;;;;;0.70;0.70;;;12.90;99.90;;;;;;4953299;28;20050;-79
2023/08/16 05:30:28;;;;;;;0.60;0.60;;;13.00;99.90;;;;;;4969845;28;20116;-79
2023/08/16 05:32:57;;;;;;;0.60;0.60;;;13.00;99.90;;;;;;4971132;28;20556;-79
2023/08/16 05:35:23;;;;;;;0.70;0.70;;;13.10;99.90;;;;;;4997104;28;20038;-79
2023/08/16 05:37:50;;;;;;;0.50;0.50;;;13.30;99.90;;;;;;4966970;28;20039;-79
2023/08/16 05:40:16;;;;;;;0.70;0.60;;;13.30;99.90;;;;;;4971027;28;20038;-79
2023/08/16 05:42:42;;;;;;;0.50;0.50;;;13.40;99.90;;;;;;4973433;28;20043;-79
2023/08/16 05:45:08;;;;;;;0.90;0.60;;;13.50;99.90;;;;;;4970981;28;20122;-80
2023/08/16 05:47:34;;;;;;;;;;;13.60;99.90;;;;;;4967907;28;20057;-80
2023/08/16 05:50:00;;;;;;;0.52;0.50;;;13.70;99.90;;;;;;4970582;28;20362;-79
2023/08/16 05:52:26;;;;;;;0.43;0.43;;;13.90;99.90;;;;;;4952809;28;20070;-79
2023/08/16 05:54:52;;;;;;;0.57;0.50;;;14.00;99.90;;;;;;4968447;28;20066;-80
2023/08/16 05:57:18;;;;;;;0.35;0.35;;;14.10;99.90;;;;;;4952273;28;20067;-79
2023/08/16 05:59:44;;;;;;;;;;;14.20;99.90;;;;;;4970935;28;20039;-79
2023/08/16 06:02:10;;;;;;;0.70;0.45;;;14.30;99.90;;;;;;4967538;28;19918;-78
2023/08/16 06:04:36;;;;;;;0.60;0.60;;;14.50;99.90;;;;;;4956046;28;20045;-80
2023/08/16 06:07:02;;;;;;;0.80;0.63;;;14.70;99.90;;;;;;4938679;28;20748;-80
2023/08/16 06:09:29;;;;;;;0.80;0.80;;;14.80;99.90;;;;;;4933254;28;20160;-80
2023/08/16 06:11:55;;;;;;;0.70;0.70;;;14.90;99.90;;;;;;4966661;28;20055;-80
2023/08/16 06:14:21;;;;;;;1.30;0.90;;;15.00;99.90;;;;;;4968926;28;20438;-80
2023/08/16 06:16:46;;;;;;;0.55;0.55;;;15.10;99.90;;;;;;4953158;28;20090;-79
2023/08/16 06:19:13;;;;;;;0.80;0.60;;;15.20;99.90;;;;;;4968854;28;20074;-83
2023/08/16 06:21:39;;;;;;;0.70;0.63;;;15.30;99.90;;;;;;4984162;28;20035;-79
2023/08/16 06:24:06;;;;;;;0.93;0.52;;;15.40;99.90;;;;;;4941748;28;20051;-78
2023/08/16 06:26:31;;;;;;;0.90;0.60;;;15.50;99.90;;;;;;4966625;28;20133;-78
2023/08/16 06:28:58;;;;;;;1.35;0.60;;;15.60;99.90;;;;;;4966026;28;20474;-78
2023/08/16 06:31:23;;;;;;;;;;;15.70;99.90;;;;;;4935884;28;20402;-78
2023/08/16 06:33:49;;;;;;;0.60;0.60;;;15.80;99.90;;;;;;4960878;28;19918;-78
2023/08/16 06:36:15;;;;;;;0.82;0.70;;;15.90;99.90;;;;;;4977545;28;20046;-78
2023/08/16 06:38:40;;;;;;;0.63;0.63;;;16.00;99.90;;;;;;4945627;28;20088;-78
2023/08/16 06:41:06;;;;;;;0.93;0.80;;;16.10;99.90;;;;;;4979050;28;20109;-78
2023/08/16 06:43:32;;;;;;;1.25;0.77;;;16.20;99.90;;;;;;4968326;28;20035;-78
2023/08/16 06:45:58;;;;;;;0.93;0.70;;;16.20;99.90;;;;;;4966591;28;20130;-78
2023/08/16 06:48:23;;;;;;;0.75;0.70;;;16.30;99.90;;;;;;4953435;28;20071;-78
2023/08/16 06:50:49;;;;;;;0.98;0.60;;;16.50;99.90;;;;;;4946132;28;20046;-78
2023/08/16 06:53:15;;;;;;;1.38;0.68;;;16.60;99.90;;;;;;4946232;29;20043;-78
2023/08/16 06:55:41;;;;;;;1.15;0.75;;;16.70;99.90;;;;;;4963483;28;20050;-78
2023/08/16 06:58:06;;;;;;;0.80;0.75;;;16.70;99.90;;;;;;4965761;28;20089;-78
2023/08/16 07:00:36;;;;;;;0.98;0.80;;;17.00;99.90;;;;;;4946680;28;20066;-78
2023/08/16 07:03:02;;;;;;;1.27;0.90;;;17.10;99.90;;;;;;4969197;28;20046;-78
2023/08/16 07:05:29;;;;;;;2.22;1.20;;;17.50;99.90;;;;;;4966609;28;20054;-78
2023/08/16 07:07:55;;;;;;;1.42;0.98;;;17.60;99.90;;;;;;4979862;28;20039;-80
2023/08/16 07:10:21;;;;;;;1.45;0.90;;;17.80;99.90;;;;;;4952547;28;20042;-79
2023/08/16 07:12:47;;;;;;;;;;;17.90;99.90;;;;;;4963238;28;20039;-79
2023/08/16 07:15:13;;;;;;;1.00;0.90;;;18.00;99.90;;;;;;4965962;28;19960;-79
2023/08/16 07:17:39;;;;;;;1.63;1.00;;;17.90;99.90;;;;;;4961497;28;20035;-78
2023/08/16 07:20:08;;;;;;;;;;;17.90;99.90;;;;;;4966684;28;20745;-77
2023/08/16 07:22:43;;;;;;;1.10;0.90;;;17.90;99.90;;;;;;4960992;28;19918;-77
2023/08/16 07:25:11;;;;;;;0.98;0.68;;;17.80;99.90;;;;;;4936234;28;20098;-77
2023/08/16 07:27:36;;;;;;;0.93;0.80;;;17.80;99.90;;;;;;4954598;28;20050;-77
2023/08/16 07:30:04;;;;;;;;;;;18.00;99.90;;;;;;4969414;28;20046;-77
2023/08/16 07:32:30;;;;;;;1.52;1.10;;;18.10;99.90;;;;;;4984638;28;19980;-77
2023/08/16 07:34:55;;;;;;;;;;;18.30;99.90;;;;;;4952734;28;20623;-77
2023/08/16 07:37:21;;;;;;;2.00;1.05;;;18.60;99.90;;;;;;5005733;28;19998;-78
2023/08/16 07:39:47;;;;;;;;;;;18.70;99.90;;;;;;4939250;28;20066;-77
2023/08/16 07:42:12;;;;;;;1.73;1.20;;;18.90;99.90;;;;;;4970322;28;20004;-79
2023/08/16 07:44:38;;;;;;;;;;;19.20;99.90;;;;;;4990732;28;20053;-79
2023/08/16 07:47:04;;;;;;;1.65;1.20;;;19.30;99.90;;;;;;5002956;28;19925;-79
2023/08/16 07:49:30;;;;;;;;;;;19.50;99.90;;;;;;4988128;28;20056;-82
2023/08/16 07:51:56;;;;;;;1.85;0.88;;;19.50;99.90;;;;;;4971094;28;19922;-76
2023/08/16 07:54:23;;;;;;;1.40;0.77;;;19.40;99.90;;;;;;4970902;28;20042;-75
2023/08/16 07:56:49;;;;;;;1.15;0.80;;;19.30;99.90;;;;;;4971417;28;20098;-75
2023/08/16 07:59:15;;;;;;;1.70;0.80;;;19.40;99.90;;;;;;4971463;28;20082;-75
2023/08/16 08:01:40;;;;;;;;;;;19.30;99.90;;;;;;4969685;28;20681;-76
2023/08/16 08:04:06;;;;;;;0.82;0.70;;;19.50;99.90;;;;;;4980607;28;19944;-76
2023/08/16 08:06:32;;;;;;;;;;;19.60;99.90;;;;;;5000141;28;20046;-75
2023/08/16 08:08:58;;;;;;;1.58;0.60;;;19.90;99.90;;;;;;5002350;28;19932;-75
2023/08/16 08:11:24;;;;;;;;;;;20.20;99.90;;;;;;4971667;28;20126;-76
2023/08/16 08:13:49;;;;;;;0.88;0.50;;;20.60;99.90;;;;;;4971414;28;20274;-75
2023/08/16 08:16:15;;;;;;;1.90;0.80;;;20.60;1.00;;;;;;4972738;28;20607;-83
2023/08/16 08:18:41;;;;;;;;;;;20.50;99.90;;;;;;4972581;28;20047;-84
2023/08/16 08:21:06;;;;;;;1.48;0.73;;;20.60;1.00;;;;;;5010632;28;19918;-84
2023/08/16 08:23:32;;;;;;;0.75;0.47;;;20.40;99.90;;;;;;4977266;28;20068;-85
2023/08/16 08:25:58;;;;;;;;;;;20.30;99.90;;;;;;4941934;28;20520;-85
2023/08/16 08:28:23;;;;;;;1.30;0.60;;;20.00;1.00;;;;;;4977102;28;19925;-85
2023/08/16 08:30:49;;;;;;;;;;;20.00;1.00;;;;;;4976181;28;20038;-85
2023/08/16 08:33:15;;;;;;;0.93;0.60;;;20.10;99.90;;;;;;5009118;28;20008;-85
2023/08/16 08:35:40;;;;;;;1.98;0.70;;;20.40;99.90;;;;;;4962142;28;20091;-85
2023/08/16 08:38:06;;;;;;;;;;;20.40;98.20;;;;;;4937902;29;20047;-86
2023/08/16 08:40:32;;;;;;;1.10;0.70;;;20.50;99.90;;;;;;4963155;28;19918;-85
2023/08/16 08:43:03;;;;;;;0.95;0.55;;;20.50;1.00;;;;;;4970626;28;20188;-79
2023/08/16 08:45:30;;;;;;;1.58;0.63;;;20.60;1.00;;;;;;4969628;28;20577;-77
2023/08/16 08:48:04;;;;;;;1.17;0.70;;;20.70;99.90;;;;;;4968127;28;20039;-89
2023/08/16 08:50:30;;;;;;;0.75;0.50;;;20.80;91.20;;;;;;4973912;28;20509;-89
2023/08/16 08:53:00;;;;;;;1.00;0.60;;;21.20;99.90;;;;;;4946794;28;20039;-89
2023/08/16 08:55:33;;;;;;;0.60;0.40;;;21.60;99.90;;;;;;4972422;28;20133;-88
2023/08/16 08:58:01;;;;;;;0.82;0.45;;;22.10;99.90;;;;;;4973967;28;20129;-90
2023/08/16 09:00:29;;;;;;;0.60;0.50;;;22.40;84.60;;;;;;4973724;28;20030;-88
2023/08/16 09:02:56;;;;;;;0.70;0.40;;;22.60;99.90;;;;;;4957351;28;20125;-88
2023/08/16 09:05:22;;;;;;;0.75;0.55;;;22.90;99.90;;;;;;4973502;28;20027;-88
2023/08/16 09:07:48;;;;;;;0.75;0.40;;;23.20;1.00;;;;;;4937607;28;20558;-88
2023/08/16 09:10:17;;;;;;;1.02;0.50;;;23.10;99.90;;;;;;4972950;28;20142;-89
2023/08/16 09:12:43;;;;;;;1.33;0.60;;;23.00;1.00;;;;;;4999126;28;20130;-89
2023/08/16 09:15:09;;;;;;;0.77;0.40;;;23.10;99.90;;;;;;4972830;28;20457;-89
2023/08/16 09:17:35;;;;;;;0.93;0.60;;;23.20;99.90;;;;;;4960990;28;20039;-90
2023/08/16 09:20:05;;;;;;;1.65;0.50;;;22.70;1.00;;;;;;4955159;28;20150;-91
2023/08/16 09:22:31;;;;;;;0.52;0.43;;;22.30;9.60;;;;;;4928754;28;20045;-87
2023/08/16 09:24:58;;;;;;;0.73;0.40;;;21.90;26.00;;;;;;4952801;28;20058;-88
2023/08/16 09:27:28;;;;;;;1.33;0.57;;;22.10;99.90;;;;;;4961233;28;20379;-88
2023/08/16 09:29:57;;;;;;;1.10;0.40;;;22.30;99.90;;;;;;4954342;28;20044;-88
2023/08/16 09:32:27;;;;;;;0.90;0.40;;;22.40;99.90;;;;;;4942854;28;20486;-88
2023/08/16 09:34:57;;;;;;;0.75;0.50;;;22.50;99.90;;;;;;4957017;28;20368;-88
2023/08/16 09:37:22;;;;;;;1.02;0.45;;;22.50;99.90;;;;;;4941578;28;20039;-87
2023/08/16 09:39:56;;;;;;;1.05;0.50;;;22.40;52.20;;;;;;4950312;29;20419;-87
2023/08/16 09:42:31;;;;;;;0.40;0.30;;;22.70;99.90;;;;;;4964505;28;20495;-88
2023/08/16 09:44:56;;;;;;;0.60;0.30;;;23.20;99.90;;;;;;4942080;28;20108;-87
2023/08/16 09:47:22;;;;;;;0.70;0.38;;;23.40;1.00;;;;;;4986707;28;20038;-89
2023/08/16 09:49:50;;;;;;;0.70;0.50;;;23.80;1.00;;;;;;4951111;28;20174;-89
2023/08/16 09:52:16;;;;;;;1.35;0.50;;;24.10;7.00;;;;;;4961942;28;20891;-84
2023/08/16 09:54:42;;;;;;;0.85;0.40;;;24.30;26.10;;;;;;4955697;28;20121;-84
2023/08/16 09:57:09;;;;;;;1.23;0.57;;;24.50;1.00;;;;;;4936722;29;20178;-83
2023/08/16 09:59:35;;;;;;;0.70;0.40;;;24.40;99.90;;;;;;4965616;28;20050;-84
2023/08/16 10:02:01;;;;;;;1.02;0.65;;;24.20;1.00;;;;;;4956326;28;20426;-83
2023/08/16 10:04:29;;;;;;;0.77;0.45;;;24.20;1.00;;;;;;4971389;28;20042;-82
2023/08/16 10:06:56;;;;;;;0.50;0.43;;;24.10;99.90;;;;;;4956734;28;20038;-91
2023/08/16 10:09:22;;;;;;;1.83;0.80;;;24.10;62.50;;;;;;4954462;28;20130;-87
2023/08/16 10:11:50;;;;;;;0.98;0.60;;;23.50;99.90;;;;;;4955715;28;20692;-87
2023/08/16 10:14:16;;;;;;;1.48;0.75;;;23.00;99.90;;;;;;4955274;28;20082;-87
2023/08/16 10:16:47;;;;;;;1.25;0.57;;;22.50;1.00;;;;;;4969239;28;20491;-86
2023/08/16 10:19:16;;;;;;;1.02;0.73;;;22.20;99.90;;;;;;4975942;28;20053;-87
2023/08/16 10:21:46;;;;;;;0.65;0.50;;;22.10;99.90;;;;;;4951795;29;20043;-87
2023/08/16 10:24:15;;;;;;;1.27;0.68;;;22.70;99.90;;;;;;4969839;28;20058;-86
2023/08/16 10:26:46;;;;;;;0.73;0.50;;;23.20;99.90;;;;;;4954738;28;20047;-87
2023/08/16 10:29:15;;;;;;;0.68;0.50;;;23.50;7.20;;;;;;4954597;28;20047;-88
2023/08/16 10:31:45;;;;;;;1.17;0.55;;;23.80;47.30;;;;;;4956142;28;20101;-87
2023/08/16 10:34:14;;;;;;;0.90;0.50;;;24.20;47.50;;;;;;4956628;28;20050;-87
2023/08/16 10:36:40;;;;;;;0.93;0.63;;;24.00;99.90;;;;;;4987357;28;20049;-88
2023/08/16 10:39:07;;;;;;;1.63;0.60;;;23.90;1.00;;;;;;4956739;28;20115;-89
2023/08/16 10:41:45;;;;;;;0.90;0.50;;;23.90;1.00;;;;;;4958170;28;20482;-88
2023/08/16 10:44:23;;;;;;;0.55;0.40;;;23.80;99.90;;;;;;4975146;28;20054;-93
2023/08/16 10:46:52;;;;;;;1.20;0.60;;;23.90;1.00;;;;;;4958784;28;20043;-94
2023/08/16 10:49:18;;;;;;;1.52;0.50;;;24.00;99.90;;;;;;4958397;28;20486;-94
2023/08/16 10:51:50;;;;;;;1.95;0.68;;;24.10;99.90;;;;;;4975236;28;20118;-93
2023/08/16 10:54:16;;;;;;;2.38;0.57;;;24.00;99.90;;;;;;4959091;28;20471;-93
2023/08/16 10:56:53;;;;;;;1.58;0.70;;;24.00;99.90;;;;;;4957968;28;20454;-92
2023/08/16 10:59:38;;;;;;;1.33;0.50;;;24.10;99.90;;;;;;4956805;28;20054;-93
2023/08/16 11:02:43;;;;;;;1.02;0.55;;;24.40;99.90;;;;;;4955468;28;20085;-92
2023/08/16 11:08:34;;;;;;;1.30;0.60;;;24.90;99.90;;;;;;4976803;28;20069;-91
2023/08/16 11:11:13;;;;;;;1.17;0.63;;;25.40;99.90;;;;;;4962170;28;20078;-93
2023/08/16 11:13:43;;;;;;;2.08;0.73;;;25.10;99.90;;;;;;4974586;28;20054;-92
2023/08/16 11:16:12;;;;;;;1.05;0.50;;;25.10;99.90;;;;;;4966814;28;20038;-91
2023/08/16 11:18:41;;;;;;;2.72;0.32;;;25.50;99.90;;;;;;4990180;28;20447;-87
2023/08/16 11:21:25;;;;;;;0.63;0.40;;;25.80;99.90;;;;;;4986538;28;20043;-92
2023/08/16 11:23:54;;;;;;;1.20;0.70;;;25.40;99.90;;;;;;4981081;28;20078;-91
2023/08/16 11:26:22;;;;;;;0.98;0.60;;;24.70;99.90;;;;;;4995991;28;20042;-90
2023/08/16 11:29:06;;;;;;;;;;;;;;;;;;;;;
2023/08/16 11:31:38;;;;;;;0.95;0.60;;;23.60;99.90;;;;;;4978118;28;20043;-91
2023/08/16 11:34:10;;;;;;;1.23;0.60;;;23.10;99.90;;;;;;4959986;28;20035;-92
2023/08/16 11:36:39;;;;;;;0.82;0.47;;;22.70;99.90;;;;;;4979562;28;20113;-91
2023/08/16 11:39:08;;;;;;;0.73;0.55;;;22.50;1.00;;;;;;4959079;28;20043;-91
2023/08/16 11:41:35;;;;;;;0.45;0.35;;;22.80;1.00;;;;;;4969021;28;20058;-91
2023/08/16 11:44:01;;;;;;;0.70;0.70;;;23.60;1.00;;;;;;4973158;28;20043;-88
2023/08/16 11:46:27;;;;;;;1.63;0.85;;;24.40;99.90;;;;;;4967319;28;20475;-90
2023/08/16 11:48:54;;;;;;;1.27;0.40;;;24.30;99.90;;;;;;4975146;28;20883;-91
2023/08/16 11:51:25;;;;;;;1.27;0.47;;;24.00;99.90;;;;;;4974565;28;20061;-91
2023/08/16 11:53:51;;;;;;;0.50;0.38;;;23.80;99.90;;;;;;4986856;28;20075;-92
2023/08/16 11:56:17;;;;;;;1.55;0.70;;;23.60;99.90;;;;;;4959512;28;20601;-92
2023/08/16 11:58:55;;;;;;;1.30;0.70;;;23.20;99.90;;;;;;4956339;28;20041;-92
2023/08/16 12:01:26;;;;;;;0.60;0.57;;;22.80;99.90;;;;;;4962920;28;20043;-87
2023/08/16 12:03:52;;;;;;;1.23;0.57;;;22.70;1.00;;;;;;5003567;28;20046;-88
2023/08/16 12:06:19;;;;;;;1.13;0.73;;;22.80;1.00;;;;;;4977805;28;20046;-93
2023/08/16 12:08:53;;;;;;;0.88;0.60;;;22.70;1.00;;;;;;4974989;28;20102;-93
2023/08/16 12:11:44;;;;;;;0.63;0.32;;;22.60;1.00;;;;;;4960928;28;20039;-92
2023/08/16 12:14:22;;;;;;;0.70;0.47;;;22.70;1.00;;;;;;4957611;28;20117;-93
2023/08/16 12:16:48;;;;;;;1.05;0.50;;;22.70;1.00;;;;;;4990555;28;20034;-93
2023/08/16 12:19:22;;;;;;;1.13;0.50;;;22.60;1.00;;;;;;4975916;28;20482;-92
2023/08/16 12:21:54;;;;;;;1.13;0.63;;;22.60;1.00;;;;;;4992281;28;20125;-93
2023/08/16 12:24:19;;;;;;;0.82;0.50;;;22.70;1.00;;;;;;4976145;28;20078;-92
2023/08/16 12:27:08;;;;;;;1.98;0.80;;;22.90;1.00;;;;;;4976388;28;20416;-92
2023/08/16 12:29:40;;;;;;;1.70;0.73;;;23.20;99.90;;;;;;4956751;28;20055;-93
2023/08/16 12:32:26;;;;;;;1.58;0.70;;;23.40;99.90;;;;;;4967875;28;20043;-92
2023/08/16 12:34:55;;;;;;;0.70;0.63;;;23.20;99.90;;;;;;4946393;28;20065;-93
2023/08/16 12:37:20;;;;;;;1.23;0.70;;;23.10;99.90;;;;;;4975991;28;20035;-93
2023/08/16 12:39:46;;;;;;;1.98;0.77;;;23.20;99.90;;;;;;4955585;28;20038;-92
2023/08/16 12:42:17;;;;;;;1.30;0.73;;;23.90;1.00;;;;;;4959725;28;20046;-91
2023/08/16 12:44:43;;;;;;;1.42;0.70;;;24.50;99.90;;;;;;4959292;28;20383;-92
2023/08/16 12:47:30;;;;;;;1.33;0.70;;;25.20;99.90;;;;;;4959609;28;20047;-93
2023/08/16 12:50:08;;;;;;;1.40;0.77;;;25.30;99.90;;;;;;4959767;28;20051;-92
2023/08/16 12:52:34;;;;;;;1.42;0.75;;;25.30;99.90;;;;;;4960047;28;20045;-93
2023/08/16 12:55:06;;;;;;;1.00;0.50;;;25.30;99.90;;;;;;4959294;28;20035;-93
2023/08/16 12:57:34;;;;;;;0.85;0.50;;;25.40;99.90;;;;;;4959321;28;20182;-93
2023/08/16 13:00:03;;;;;;;1.00;0.50;;;25.30;99.90;;;;;;4959690;28;20046;-93
2023/08/16 13:02:57;;;;;;;0.35;0.30;;;25.10;99.90;;;;;;4959344;28;20101;-93